sensor_id;sensor_type;location;lat;lon;timestamp;P1;durP1;ratioP1;P2;durP2;ratioP2
11197;SDS011;5655;48.744;9.162;2023-07-16T00:01:55;5.07;;;3.63;;
11197;SDS011;5655;48.744;9.162;2023-07-16T00:04:21;4.55;;;3.65;;
11197;SDS011;5655;48.744;9.162;2023-07-16T00:06:46;3.90;;;3.50;;
11197;SDS011;5655;48.744;9.162;2023-07-16T00:09:12;3.60;;;2.97;;
11197;SDS011;5655;48.744;9.162;2023-07-16T00:11:37;5.63;;;3.38;;
11197;SDS011;5655;48.744;9.162;2023-07-16T00:14:02;6.47;;;3.22;;
11197;SDS011;5655;48.744;9.162;2023-07-16T00:16:27;3.53;;;2.78;;
11197;SDS011;5655;48.744;9.162;2023-07-16T00:18:53;5.15;;;3.45;;
11197;SDS011;5655;48.744;9.162;2023-07-16T00:21:18;3.90;;;3.00;;
11197;SDS011;5655;48.744;9.162;2023-07-16T00:23:44;3.30;;;2.53;;
11197;SDS011;5655;48.744;9.162;2023-07-16T00:26:09;3.30;;;2.40;;
11197;SDS011;5655;48.744;9.162;2023-07-16T00:28:34;2.65;;;2.33;;
11197;SDS011;5655;48.744;9.162;2023-07-16T00:31:00;2.42;;;2.20;;
11197;SDS011;5655;48.744;9.162;2023-07-16T00:33:25;2.53;;;2.15;;
11197;SDS011;5655;48.744;9.162;2023-07-16T00:35:51;3.08;;;2.05;;
11197;SDS011;5655;48.744;9.162;2023-07-16T00:38:16;3.47;;;2.63;;
11197;SDS011;5655;48.744;9.162;2023-07-16T00:40:43;4.38;;;2.55;;
11197;SDS011;5655;48.744;9.162;2023-07-16T00:43:08;3.38;;;2.55;;
11197;SDS011;5655;48.744;9.162;2023-07-16T00:45:34;3.80;;;2.45;;
11197;SDS011;5655;48.744;9.162;2023-07-16T00:48:00;3.67;;;2.20;;
11197;SDS011;5655;48.744;9.162;2023-07-16T00:50:25;4.57;;;2.00;;
11197;SDS011;5655;48.744;9.162;2023-07-16T00:52:51;4.38;;;2.20;;
11197;SDS011;5655;48.744;9.162;2023-07-16T00:55:16;4.22;;;2.50;;
11197;SDS011;5655;48.744;9.162;2023-07-16T00:57:42;2.50;;;1.90;;
11197;SDS011;5655;48.744;9.162;2023-07-16T01:00:08;3.15;;;2.05;;
11197;SDS011;5655;48.744;9.162;2023-07-16T01:02:34;2.92;;;2.33;;
11197;SDS011;5655;48.744;9.162;2023-07-16T01:05:00;4.60;;;2.53;;
11197;SDS011;5655;48.744;9.162;2023-07-16T01:07:26;2.38;;;2.10;;
11197;SDS011;5655;48.744;9.162;2023-07-16T01:09:54;2.90;;;2.28;;
11197;SDS011;5655;48.744;9.162;2023-07-16T01:12:21;3.42;;;2.15;;
11197;SDS011;5655;48.744;9.162;2023-07-16T01:14:47;2.55;;;2.03;;
11197;SDS011;5655;48.744;9.162;2023-07-16T01:17:13;3.50;;;1.50;;
11197;SDS011;5655;48.744;9.162;2023-07-16T01:19:38;2.22;;;2.00;;
11197;SDS011;5655;48.744;9.162;2023-07-16T01:24:56;2.45;;;1.45;;
11197;SDS011;5655;48.744;9.162;2023-07-16T01:30:17;1.52;;;1.42;;
11197;SDS011;5655;48.744;9.162;2023-07-16T01:32:45;1.42;;;1.30;;
11197;SDS011;5655;48.744;9.162;2023-07-16T01:35:11;3.22;;;1.60;;
11197;SDS011;5655;48.744;9.162;2023-07-16T01:37:38;1.40;;;1.30;;
11197;SDS011;5655;48.744;9.162;2023-07-16T01:40:06;1.63;;;1.40;;
11197;SDS011;5655;48.744;9.162;2023-07-16T01:42:34;2.20;;;1.40;;
11197;SDS011;5655;48.744;9.162;2023-07-16T01:44:59;1.55;;;1.10;;
11197;SDS011;5655;48.744;9.162;2023-07-16T01:49:59;1.70;;;1.40;;
11197;SDS011;5655;48.744;9.162;2023-07-16T01:52:24;1.50;;;1.40;;
11197;SDS011;5655;48.744;9.162;2023-07-16T01:54:49;1.48;;;1.38;;
11197;SDS011;5655;48.744;9.162;2023-07-16T01:57:15;1.20;;;1.10;;
11197;SDS011;5655;48.744;9.162;2023-07-16T01:59:40;2.97;;;1.50;;
11197;SDS011;5655;48.744;9.162;2023-07-16T02:02:05;1.80;;;1.38;;
11197;SDS011;5655;48.744;9.162;2023-07-16T02:04:31;2.30;;;1.45;;
11197;SDS011;5655;48.744;9.162;2023-07-16T02:06:56;2.45;;;1.40;;
11197;SDS011;5655;48.744;9.162;2023-07-16T02:09:21;2.65;;;1.40;;
11197;SDS011;5655;48.744;9.162;2023-07-16T02:11:47;1.50;;;1.27;;
11197;SDS011;5655;48.744;9.162;2023-07-16T02:14:12;1.77;;;1.67;;
11197;SDS011;5655;48.744;9.162;2023-07-16T02:16:39;2.80;;;1.48;;
11197;SDS011;5655;48.744;9.162;2023-07-16T02:19:04;1.67;;;1.52;;
11197;SDS011;5655;48.744;9.162;2023-07-16T02:21:29;2.05;;;1.30;;
11197;SDS011;5655;48.744;9.162;2023-07-16T02:23:55;1.90;;;1.40;;
11197;SDS011;5655;48.744;9.162;2023-07-16T02:26:20;2.88;;;1.40;;
11197;SDS011;5655;48.744;9.162;2023-07-16T02:28:46;1.63;;;1.30;;
11197;SDS011;5655;48.744;9.162;2023-07-16T02:31:11;1.42;;;1.33;;
11197;SDS011;5655;48.744;9.162;2023-07-16T02:33:36;1.40;;;1.23;;
11197;SDS011;5655;48.744;9.162;2023-07-16T02:36:02;1.20;;;1.10;;
11197;SDS011;5655;48.744;9.162;2023-07-16T02:38:27;1.95;;;1.45;;
11197;SDS011;5655;48.744;9.162;2023-07-16T02:40:53;1.50;;;1.40;;
11197;SDS011;5655;48.744;9.162;2023-07-16T02:43:18;2.65;;;1.10;;
11197;SDS011;5655;48.744;9.162;2023-07-16T02:45:43;1.45;;;1.30;;
11197;SDS011;5655;48.744;9.162;2023-07-16T02:48:08;1.83;;;1.23;;
11197;SDS011;5655;48.744;9.162;2023-07-16T02:50:37;2.35;;;1.80;;
11197;SDS011;5655;48.744;9.162;2023-07-16T02:53:06;4.20;;;1.30;;
11197;SDS011;5655;48.744;9.162;2023-07-16T02:55:32;2.47;;;1.45;;
11197;SDS011;5655;48.744;9.162;2023-07-16T02:57:59;1.38;;;1.27;;
11197;SDS011;5655;48.744;9.162;2023-07-16T03:00:29;3.08;;;1.48;;
11197;SDS011;5655;48.744;9.162;2023-07-16T03:02:54;1.90;;;1.40;;
11197;SDS011;5655;48.744;9.162;2023-07-16T03:05:19;2.30;;;1.38;;
11197;SDS011;5655;48.744;9.162;2023-07-16T03:07:45;2.70;;;1.40;;
11197;SDS011;5655;48.744;9.162;2023-07-16T03:10:11;2.28;;;1.38;;
11197;SDS011;5655;48.744;9.162;2023-07-16T03:12:36;2.30;;;1.60;;
11197;SDS011;5655;48.744;9.162;2023-07-16T03:15:02;3.50;;;1.70;;
11197;SDS011;5655;48.744;9.162;2023-07-16T03:17:27;2.45;;;1.50;;
11197;SDS011;5655;48.744;9.162;2023-07-16T03:19:53;3.03;;;1.50;;
11197;SDS011;5655;48.744;9.162;2023-07-16T03:22:18;2.65;;;1.38;;
11197;SDS011;5655;48.744;9.162;2023-07-16T03:24:43;2.50;;;1.65;;
11197;SDS011;5655;48.744;9.162;2023-07-16T03:27:08;2.05;;;1.80;;
11197;SDS011;5655;48.744;9.162;2023-07-16T03:29:34;4.55;;;1.90;;
11197;SDS011;5655;48.744;9.162;2023-07-16T03:31:59;4.05;;;1.90;;
11197;SDS011;5655;48.744;9.162;2023-07-16T03:34:25;3.25;;;1.67;;
11197;SDS011;5655;48.744;9.162;2023-07-16T03:36:50;2.15;;;1.40;;
11197;SDS011;5655;48.744;9.162;2023-07-16T03:39:15;3.83;;;1.80;;
11197;SDS011;5655;48.744;9.162;2023-07-16T03:41:41;3.72;;;2.00;;
11197;SDS011;5655;48.744;9.162;2023-07-16T03:44:06;2.58;;;1.67;;
11197;SDS011;5655;48.744;9.162;2023-07-16T03:46:31;4.45;;;1.60;;
11197;SDS011;5655;48.744;9.162;2023-07-16T03:48:57;3.75;;;1.58;;
11197;SDS011;5655;48.744;9.162;2023-07-16T03:51:22;2.78;;;1.40;;
11197;SDS011;5655;48.744;9.162;2023-07-16T03:53:47;3.55;;;1.52;;
11197;SDS011;5655;48.744;9.162;2023-07-16T03:56:13;5.05;;;1.80;;
11197;SDS011;5655;48.744;9.162;2023-07-16T03:58:38;3.35;;;1.98;;
11197;SDS011;5655;48.744;9.162;2023-07-16T04:01:03;4.97;;;1.92;;
11197;SDS011;5655;48.744;9.162;2023-07-16T04:03:28;4.47;;;1.83;;
11197;SDS011;5655;48.744;9.162;2023-07-16T04:06:08;3.17;;;1.70;;
11197;SDS011;5655;48.744;9.162;2023-07-16T04:08:35;4.25;;;1.92;;
11197;SDS011;5655;48.744;9.162;2023-07-16T04:11:01;2.88;;;1.77;;
11197;SDS011;5655;48.744;9.162;2023-07-16T04:13:30;3.08;;;1.70;;
11197;SDS011;5655;48.744;9.162;2023-07-16T04:15:55;7.70;;;1.77;;
11197;SDS011;5655;48.744;9.162;2023-07-16T04:18:22;1.98;;;1.77;;
11197;SDS011;5655;48.744;9.162;2023-07-16T04:20:47;2.15;;;1.63;;
11197;SDS011;5655;48.744;9.162;2023-07-16T04:23:13;5.38;;;1.80;;
11197;SDS011;5655;48.744;9.162;2023-07-16T04:25:38;6.55;;;1.65;;
11197;SDS011;5655;48.744;9.162;2023-07-16T04:28:03;3.38;;;1.75;;
11197;SDS011;5655;48.744;9.162;2023-07-16T04:30:29;4.88;;;1.95;;
11197;SDS011;5655;48.744;9.162;2023-07-16T04:32:54;2.75;;;1.80;;
11197;SDS011;5655;48.744;9.162;2023-07-16T04:35:19;2.88;;;1.73;;
11197;SDS011;5655;48.744;9.162;2023-07-16T04:37:45;2.92;;;1.80;;
11197;SDS011;5655;48.744;9.162;2023-07-16T04:40:10;3.92;;;2.10;;
11197;SDS011;5655;48.744;9.162;2023-07-16T04:42:36;2.55;;;2.00;;
11197;SDS011;5655;48.744;9.162;2023-07-16T04:45:01;7.43;;;2.22;;
11197;SDS011;5655;48.744;9.162;2023-07-16T04:47:27;3.53;;;1.98;;
11197;SDS011;5655;48.744;9.162;2023-07-16T04:49:52;2.58;;;1.75;;
11197;SDS011;5655;48.744;9.162;2023-07-16T04:52:18;2.60;;;1.80;;
11197;SDS011;5655;48.744;9.162;2023-07-16T04:54:43;4.10;;;1.80;;
11197;SDS011;5655;48.744;9.162;2023-07-16T04:57:09;5.50;;;2.60;;
11197;SDS011;5655;48.744;9.162;2023-07-16T04:59:34;3.53;;;1.83;;
11197;SDS011;5655;48.744;9.162;2023-07-16T05:02:01;4.95;;;1.80;;
11197;SDS011;5655;48.744;9.162;2023-07-16T05:04:27;5.07;;;2.03;;
11197;SDS011;5655;48.744;9.162;2023-07-16T05:06:52;3.30;;;1.90;;
11197;SDS011;5655;48.744;9.162;2023-07-16T05:09:18;2.20;;;1.80;;
11197;SDS011;5655;48.744;9.162;2023-07-16T05:11:44;3.67;;;1.80;;
11197;SDS011;5655;48.744;9.162;2023-07-16T05:14:09;2.78;;;1.77;;
11197;SDS011;5655;48.744;9.162;2023-07-16T05:16:35;4.05;;;1.58;;
11197;SDS011;5655;48.744;9.162;2023-07-16T05:19:00;4.60;;;1.83;;
11197;SDS011;5655;48.744;9.162;2023-07-16T05:21:25;3.45;;;1.85;;
11197;SDS011;5655;48.744;9.162;2023-07-16T05:23:51;2.03;;;1.70;;
11197;SDS011;5655;48.744;9.162;2023-07-16T05:26:16;2.25;;;1.95;;
11197;SDS011;5655;48.744;9.162;2023-07-16T05:28:41;5.72;;;2.28;;
11197;SDS011;5655;48.744;9.162;2023-07-16T05:31:07;5.45;;;2.25;;
11197;SDS011;5655;48.744;9.162;2023-07-16T05:33:32;7.80;;;2.35;;
11197;SDS011;5655;48.744;9.162;2023-07-16T05:35:57;5.85;;;2.17;;
11197;SDS011;5655;48.744;9.162;2023-07-16T05:38:22;2.50;;;2.05;;
11197;SDS011;5655;48.744;9.162;2023-07-16T05:40:48;4.30;;;2.45;;
11197;SDS011;5655;48.744;9.162;2023-07-16T05:43:13;2.25;;;1.92;;
11197;SDS011;5655;48.744;9.162;2023-07-16T05:45:39;4.80;;;2.20;;
11197;SDS011;5655;48.744;9.162;2023-07-16T05:48:05;5.05;;;2.33;;
11197;SDS011;5655;48.744;9.162;2023-07-16T05:50:30;8.88;;;2.50;;
11197;SDS011;5655;48.744;9.162;2023-07-16T05:52:55;4.78;;;2.10;;
11197;SDS011;5655;48.744;9.162;2023-07-16T05:55:21;2.33;;;1.70;;
11197;SDS011;5655;48.744;9.162;2023-07-16T05:57:46;4.00;;;2.10;;
11197;SDS011;5655;48.744;9.162;2023-07-16T06:00:11;3.42;;;1.90;;
11197;SDS011;5655;48.744;9.162;2023-07-16T06:02:38;4.00;;;1.90;;
11197;SDS011;5655;48.744;9.162;2023-07-16T06:05:04;7.13;;;2.00;;
11197;SDS011;5655;48.744;9.162;2023-07-16T06:07:29;4.35;;;1.90;;
11197;SDS011;5655;48.744;9.162;2023-07-16T06:09:56;2.25;;;1.70;;
11197;SDS011;5655;48.744;9.162;2023-07-16T06:12:21;4.57;;;2.15;;
11197;SDS011;5655;48.744;9.162;2023-07-16T06:14:46;3.33;;;2.30;;
11197;SDS011;5655;48.744;9.162;2023-07-16T06:17:12;5.75;;;2.15;;
11197;SDS011;5655;48.744;9.162;2023-07-16T06:19:37;7.35;;;1.98;;
11197;SDS011;5655;48.744;9.162;2023-07-16T06:22:02;4.25;;;1.88;;
11197;SDS011;5655;48.744;9.162;2023-07-16T06:24:28;4.75;;;2.10;;
11197;SDS011;5655;48.744;9.162;2023-07-16T06:26:53;3.72;;;1.90;;
11197;SDS011;5655;48.744;9.162;2023-07-16T06:29:18;3.45;;;1.98;;
11197;SDS011;5655;48.744;9.162;2023-07-16T06:31:53;6.30;;;2.27;;
11197;SDS011;5655;48.744;9.162;2023-07-16T06:34:20;3.25;;;1.88;;
11197;SDS011;5655;48.744;9.162;2023-07-16T06:36:45;5.80;;;2.30;;
11197;SDS011;5655;48.744;9.162;2023-07-16T06:39:10;5.78;;;1.90;;
11197;SDS011;5655;48.744;9.162;2023-07-16T06:41:36;5.72;;;1.85;;
11197;SDS011;5655;48.744;9.162;2023-07-16T06:44:01;4.43;;;2.25;;
11197;SDS011;5655;48.744;9.162;2023-07-16T06:46:26;4.00;;;1.73;;
11197;SDS011;5655;48.744;9.162;2023-07-16T06:48:51;4.13;;;1.60;;
11197;SDS011;5655;48.744;9.162;2023-07-16T06:51:17;5.78;;;1.77;;
11197;SDS011;5655;48.744;9.162;2023-07-16T06:53:42;4.13;;;1.77;;
11197;SDS011;5655;48.744;9.162;2023-07-16T06:56:07;4.07;;;1.83;;
11197;SDS011;5655;48.744;9.162;2023-07-16T06:58:33;2.00;;;1.65;;
11197;SDS011;5655;48.744;9.162;2023-07-16T07:00:58;4.03;;;1.95;;
11197;SDS011;5655;48.744;9.162;2023-07-16T07:03:24;6.18;;;2.40;;
11197;SDS011;5655;48.744;9.162;2023-07-16T07:05:49;5.20;;;1.92;;
11197;SDS011;5655;48.744;9.162;2023-07-16T07:08:14;3.80;;;2.20;;
11197;SDS011;5655;48.744;9.162;2023-07-16T07:10:40;4.18;;;1.80;;
11197;SDS011;5655;48.744;9.162;2023-07-16T07:13:05;4.75;;;1.73;;
11197;SDS011;5655;48.744;9.162;2023-07-16T07:15:31;2.38;;;1.52;;
11197;SDS011;5655;48.744;9.162;2023-07-16T07:17:56;4.75;;;1.70;;
11197;SDS011;5655;48.744;9.162;2023-07-16T07:20:21;6.10;;;2.10;;
11197;SDS011;5655;48.744;9.162;2023-07-16T07:22:47;5.07;;;2.20;;
11197;SDS011;5655;48.744;9.162;2023-07-16T07:25:12;6.07;;;1.70;;
11197;SDS011;5655;48.744;9.162;2023-07-16T07:27:37;2.53;;;1.90;;
11197;SDS011;5655;48.744;9.162;2023-07-16T07:30:03;5.20;;;1.90;;
11197;SDS011;5655;48.744;9.162;2023-07-16T07:32:28;3.25;;;1.60;;
11197;SDS011;5655;48.744;9.162;2023-07-16T07:34:54;3.90;;;1.80;;
11197;SDS011;5655;48.744;9.162;2023-07-16T07:37:19;7.75;;;1.65;;
11197;SDS011;5655;48.744;9.162;2023-07-16T07:39:44;4.43;;;1.65;;
11197;SDS011;5655;48.744;9.162;2023-07-16T07:42:12;3.90;;;1.67;;
11197;SDS011;5655;48.744;9.162;2023-07-16T07:44:38;3.42;;;1.58;;
11197;SDS011;5655;48.744;9.162;2023-07-16T07:47:03;4.53;;;1.70;;
11197;SDS011;5655;48.744;9.162;2023-07-16T07:49:29;5.20;;;1.63;;
11197;SDS011;5655;48.744;9.162;2023-07-16T07:51:55;3.15;;;1.60;;
11197;SDS011;5655;48.744;9.162;2023-07-16T07:54:20;3.00;;;1.75;;
11197;SDS011;5655;48.744;9.162;2023-07-16T07:56:45;2.72;;;1.48;;
11197;SDS011;5655;48.744;9.162;2023-07-16T07:59:11;4.15;;;1.80;;
11197;SDS011;5655;48.744;9.162;2023-07-16T08:01:36;7.53;;;1.92;;
11197;SDS011;5655;48.744;9.162;2023-07-16T08:04:02;5.90;;;2.30;;
11197;SDS011;5655;48.744;9.162;2023-07-16T08:06:27;3.35;;;1.65;;
11197;SDS011;5655;48.744;9.162;2023-07-16T08:08:52;4.18;;;1.80;;
11197;SDS011;5655;48.744;9.162;2023-07-16T08:11:18;3.30;;;1.70;;
11197;SDS011;5655;48.744;9.162;2023-07-16T08:13:43;6.10;;;1.50;;
11197;SDS011;5655;48.744;9.162;2023-07-16T08:16:09;4.70;;;1.52;;
11197;SDS011;5655;48.744;9.162;2023-07-16T08:18:34;3.50;;;1.50;;
11197;SDS011;5655;48.744;9.162;2023-07-16T08:20:59;3.42;;;1.63;;
11197;SDS011;5655;48.744;9.162;2023-07-16T08:23:25;3.33;;;1.30;;
11197;SDS011;5655;48.744;9.162;2023-07-16T08:25:51;8.93;;;1.95;;
11197;SDS011;5655;48.744;9.162;2023-07-16T08:28:16;4.70;;;1.60;;
11197;SDS011;5655;48.744;9.162;2023-07-16T08:30:41;1.90;;;1.38;;
11197;SDS011;5655;48.744;9.162;2023-07-16T08:33:07;3.63;;;1.60;;
11197;SDS011;5655;48.744;9.162;2023-07-16T08:35:32;4.22;;;1.63;;
11197;SDS011;5655;48.744;9.162;2023-07-16T08:37:57;5.10;;;1.75;;
11197;SDS011;5655;48.744;9.162;2023-07-16T08:40:23;2.95;;;1.70;;
11197;SDS011;5655;48.744;9.162;2023-07-16T08:42:49;3.92;;;1.40;;
11197;SDS011;5655;48.744;9.162;2023-07-16T08:45:14;5.45;;;1.50;;
11197;SDS011;5655;48.744;9.162;2023-07-16T08:47:40;3.30;;;1.70;;
11197;SDS011;5655;48.744;9.162;2023-07-16T08:50:06;3.38;;;1.52;;
11197;SDS011;5655;48.744;9.162;2023-07-16T08:52:31;4.65;;;1.60;;
11197;SDS011;5655;48.744;9.162;2023-07-16T08:54:57;2.92;;;1.40;;
11197;SDS011;5655;48.744;9.162;2023-07-16T08:57:22;4.47;;;1.70;;
11197;SDS011;5655;48.744;9.162;2023-07-16T08:59:48;2.88;;;1.42;;
11197;SDS011;5655;48.744;9.162;2023-07-16T09:02:16;2.92;;;1.33;;
11197;SDS011;5655;48.744;9.162;2023-07-16T09:04:43;2.22;;;1.42;;
11197;SDS011;5655;48.744;9.162;2023-07-16T09:07:08;2.53;;;1.42;;
11197;SDS011;5655;48.744;9.162;2023-07-16T09:09:34;5.03;;;1.65;;
11197;SDS011;5655;48.744;9.162;2023-07-16T09:11:59;4.05;;;1.23;;
11197;SDS011;5655;48.744;9.162;2023-07-16T09:14:25;2.22;;;1.20;;
11197;SDS011;5655;48.744;9.162;2023-07-16T09:16:50;4.93;;;1.40;;
11197;SDS011;5655;48.744;9.162;2023-07-16T09:19:16;3.10;;;1.30;;
11197;SDS011;5655;48.744;9.162;2023-07-16T09:21:47;2.35;;;1.50;;
11197;SDS011;5655;48.744;9.162;2023-07-16T09:24:12;5.15;;;1.48;;
11197;SDS011;5655;48.744;9.162;2023-07-16T09:26:38;3.78;;;1.40;;
11197;SDS011;5655;48.744;9.162;2023-07-16T09:29:07;3.05;;;1.67;;
11197;SDS011;5655;48.744;9.162;2023-07-16T09:31:33;3.60;;;1.42;;
11197;SDS011;5655;48.744;9.162;2023-07-16T09:33:58;2.80;;;1.70;;
11197;SDS011;5655;48.744;9.162;2023-07-16T09:36:26;2.72;;;1.30;;
11197;SDS011;5655;48.744;9.162;2023-07-16T09:38:53;2.40;;;1.20;;
11197;SDS011;5655;48.744;9.162;2023-07-16T09:41:19;3.08;;;1.58;;
11197;SDS011;5655;48.744;9.162;2023-07-16T09:43:46;3.03;;;1.40;;
11197;SDS011;5655;48.744;9.162;2023-07-16T09:46:11;3.05;;;1.67;;
11197;SDS011;5655;48.744;9.162;2023-07-16T09:48:36;1.33;;;1.10;;
11197;SDS011;5655;48.744;9.162;2023-07-16T09:51:02;3.17;;;1.42;;
11197;SDS011;5655;48.744;9.162;2023-07-16T09:53:27;3.60;;;1.70;;
11197;SDS011;5655;48.744;9.162;2023-07-16T09:55:55;2.22;;;1.45;;
11197;SDS011;5655;48.744;9.162;2023-07-16T09:58:23;2.13;;;1.50;;
11197;SDS011;5655;48.744;9.162;2023-07-16T10:00:49;3.38;;;1.60;;
11197;SDS011;5655;48.744;9.162;2023-07-16T10:03:15;2.40;;;1.60;;
11197;SDS011;5655;48.744;9.162;2023-07-16T10:05:42;2.03;;;1.30;;
11197;SDS011;5655;48.744;9.162;2023-07-16T10:08:15;2.35;;;1.42;;
11197;SDS011;5655;48.744;9.162;2023-07-16T10:10:42;3.58;;;1.85;;
11197;SDS011;5655;48.744;9.162;2023-07-16T10:13:18;4.13;;;1.70;;
11197;SDS011;5655;48.744;9.162;2023-07-16T10:15:53;5.88;;;2.20;;
11197;SDS011;5655;48.744;9.162;2023-07-16T10:18:26;3.55;;;1.70;;
11197;SDS011;5655;48.744;9.162;2023-07-16T10:21:03;3.03;;;1.65;;
11197;SDS011;5655;48.744;9.162;2023-07-16T10:26:05;2.92;;;1.20;;
11197;SDS011;5655;48.744;9.162;2023-07-16T10:28:32;1.83;;;1.60;;
11197;SDS011;5655;48.744;9.162;2023-07-16T10:31:00;3.22;;;1.63;;
11197;SDS011;5655;48.744;9.162;2023-07-16T10:33:26;3.30;;;1.58;;
11197;SDS011;5655;48.744;9.162;2023-07-16T10:35:51;2.22;;;1.45;;
11197;SDS011;5655;48.744;9.162;2023-07-16T10:38:17;3.25;;;1.83;;
11197;SDS011;5655;48.744;9.162;2023-07-16T10:40:42;2.40;;;1.20;;
11197;SDS011;5655;48.744;9.162;2023-07-16T10:43:09;2.25;;;1.20;;
11197;SDS011;5655;48.744;9.162;2023-07-16T10:45:35;3.25;;;1.50;;
11197;SDS011;5655;48.744;9.162;2023-07-16T10:48:01;2.92;;;1.50;;
11197;SDS011;5655;48.744;9.162;2023-07-16T10:50:26;1.67;;;1.27;;
11197;SDS011;5655;48.744;9.162;2023-07-16T10:52:52;3.83;;;1.70;;
11197;SDS011;5655;48.744;9.162;2023-07-16T10:55:18;4.43;;;1.60;;
11197;SDS011;5655;48.744;9.162;2023-07-16T10:57:44;3.30;;;1.50;;
11197;SDS011;5655;48.744;9.162;2023-07-16T11:00:11;4.03;;;1.73;;
11197;SDS011;5655;48.744;9.162;2023-07-16T11:02:39;1.88;;;1.50;;
11197;SDS011;5655;48.744;9.162;2023-07-16T11:05:05;2.70;;;1.60;;
11197;SDS011;5655;48.744;9.162;2023-07-16T11:07:34;2.25;;;1.42;;
11197;SDS011;5655;48.744;9.162;2023-07-16T11:09:59;3.95;;;1.60;;
11197;SDS011;5655;48.744;9.162;2023-07-16T11:12:27;2.70;;;1.40;;
11197;SDS011;5655;48.744;9.162;2023-07-16T11:14:53;3.05;;;1.60;;
11197;SDS011;5655;48.744;9.162;2023-07-16T11:17:20;3.20;;;1.58;;
11197;SDS011;5655;48.744;9.162;2023-07-16T11:19:48;2.85;;;1.50;;
11197;SDS011;5655;48.744;9.162;2023-07-16T11:22:15;3.47;;;1.83;;
11197;SDS011;5655;48.744;9.162;2023-07-16T11:24:42;2.25;;;1.70;;
11197;SDS011;5655;48.744;9.162;2023-07-16T11:27:42;5.80;;;1.98;;
11197;SDS011;5655;48.744;9.162;2023-07-16T11:30:01;1.75;;;1.52;;
11197;SDS011;5655;48.744;9.162;2023-07-16T11:34:58;2.83;;;1.60;;
11197;SDS011;5655;48.744;9.162;2023-07-16T11:37:25;3.25;;;1.50;;
11197;SDS011;5655;48.744;9.162;2023-07-16T11:39:55;3.95;;;1.73;;
11197;SDS011;5655;48.744;9.162;2023-07-16T11:42:31;2.15;;;1.50;;
11197;SDS011;5655;48.744;9.162;2023-07-16T11:44:57;2.22;;;1.70;;
11197;SDS011;5655;48.744;9.162;2023-07-16T11:47:24;4.43;;;1.77;;
11197;SDS011;5655;48.744;9.162;2023-07-16T11:49:50;1.90;;;1.52;;
11197;SDS011;5655;48.744;9.162;2023-07-16T11:52:19;1.90;;;1.55;;
11197;SDS011;5655;48.744;9.162;2023-07-16T11:54:51;3.00;;;1.73;;
11197;SDS011;5655;48.744;9.162;2023-07-16T11:57:17;3.45;;;1.75;;
11197;SDS011;5655;48.744;9.162;2023-07-16T11:59:42;4.13;;;1.75;;
11197;SDS011;5655;48.744;9.162;2023-07-16T12:02:08;2.25;;;1.35;;
11197;SDS011;5655;48.744;9.162;2023-07-16T12:04:34;3.22;;;1.63;;
11197;SDS011;5655;48.744;9.162;2023-07-16T12:06:59;2.42;;;1.50;;
11197;SDS011;5655;48.744;9.162;2023-07-16T12:09:24;4.00;;;1.65;;
11197;SDS011;5655;48.744;9.162;2023-07-16T12:11:50;1.63;;;1.52;;
11197;SDS011;5655;48.744;9.162;2023-07-16T12:14:15;3.17;;;1.90;;
11197;SDS011;5655;48.744;9.162;2023-07-16T12:16:40;2.80;;;1.73;;
11197;SDS011;5655;48.744;9.162;2023-07-16T12:19:07;3.28;;;1.67;;
11197;SDS011;5655;48.744;9.162;2023-07-16T12:21:33;4.35;;;1.30;;
11197;SDS011;5655;48.744;9.162;2023-07-16T12:23:58;2.75;;;1.60;;
11197;SDS011;5655;48.744;9.162;2023-07-16T12:26:24;2.22;;;1.48;;
11197;SDS011;5655;48.744;9.162;2023-07-16T12:28:49;3.15;;;1.33;;
11197;SDS011;5655;48.744;9.162;2023-07-16T12:31:14;3.55;;;1.77;;
11197;SDS011;5655;48.744;9.162;2023-07-16T12:33:41;3.55;;;1.70;;
11197;SDS011;5655;48.744;9.162;2023-07-16T12:36:07;2.70;;;1.50;;
11197;SDS011;5655;48.744;9.162;2023-07-16T12:38:32;2.08;;;1.40;;
11197;SDS011;5655;48.744;9.162;2023-07-16T12:40:57;4.68;;;1.80;;
11197;SDS011;5655;48.744;9.162;2023-07-16T12:43:23;2.45;;;1.45;;
11197;SDS011;5655;48.744;9.162;2023-07-16T12:45:48;2.20;;;1.58;;
11197;SDS011;5655;48.744;9.162;2023-07-16T12:48:13;2.20;;;1.50;;
11197;SDS011;5655;48.744;9.162;2023-07-16T12:50:38;3.03;;;1.80;;
11197;SDS011;5655;48.744;9.162;2023-07-16T12:53:04;3.60;;;1.67;;
11197;SDS011;5655;48.744;9.162;2023-07-16T12:55:29;3.92;;;1.60;;
11197;SDS011;5655;48.744;9.162;2023-07-16T12:57:56;2.17;;;1.40;;
11197;SDS011;5655;48.744;9.162;2023-07-16T13:00:21;2.67;;;1.67;;
11197;SDS011;5655;48.744;9.162;2023-07-16T13:02:47;3.35;;;1.70;;
11197;SDS011;5655;48.744;9.162;2023-07-16T13:05:12;6.15;;;1.48;;
11197;SDS011;5655;48.744;9.162;2023-07-16T13:07:37;2.63;;;1.85;;
11197;SDS011;5655;48.744;9.162;2023-07-16T13:10:03;4.68;;;1.80;;
11197;SDS011;5655;48.744;9.162;2023-07-16T13:12:29;4.05;;;1.73;;
11197;SDS011;5655;48.744;9.162;2023-07-16T13:14:54;2.47;;;1.58;;
11197;SDS011;5655;48.744;9.162;2023-07-16T13:17:19;2.72;;;1.52;;
11197;SDS011;5655;48.744;9.162;2023-07-16T13:19:45;2.70;;;1.55;;
11197;SDS011;5655;48.744;9.162;2023-07-16T13:22:12;3.65;;;1.60;;
11197;SDS011;5655;48.744;9.162;2023-07-16T13:24:38;2.45;;;1.45;;
11197;SDS011;5655;48.744;9.162;2023-07-16T13:27:03;2.75;;;1.70;;
11197;SDS011;5655;48.744;9.162;2023-07-16T13:29:29;2.10;;;1.40;;
11197;SDS011;5655;48.744;9.162;2023-07-16T13:31:54;2.92;;;1.60;;
11197;SDS011;5655;48.744;9.162;2023-07-16T13:34:19;3.05;;;1.52;;
11197;SDS011;5655;48.744;9.162;2023-07-16T13:36:45;2.88;;;1.70;;
11197;SDS011;5655;48.744;9.162;2023-07-16T13:39:10;3.97;;;1.83;;
11197;SDS011;5655;48.744;9.162;2023-07-16T13:41:38;2.22;;;1.52;;
11197;SDS011;5655;48.744;9.162;2023-07-16T13:44:03;2.22;;;1.17;;
11197;SDS011;5655;48.744;9.162;2023-07-16T13:46:29;3.80;;;1.85;;
11197;SDS011;5655;48.744;9.162;2023-07-16T13:48:54;1.70;;;1.48;;
11197;SDS011;5655;48.744;9.162;2023-07-16T13:51:19;4.70;;;2.00;;
11197;SDS011;5655;48.744;9.162;2023-07-16T13:53:45;1.95;;;1.52;;
11197;SDS011;5655;48.744;9.162;2023-07-16T13:56:10;4.03;;;1.95;;
11197;SDS011;5655;48.744;9.162;2023-07-16T13:58:35;2.65;;;1.20;;
11197;SDS011;5655;48.744;9.162;2023-07-16T14:01:01;3.60;;;1.75;;
11197;SDS011;5655;48.744;9.162;2023-07-16T14:03:26;2.40;;;1.70;;
11197;SDS011;5655;48.744;9.162;2023-07-16T14:05:52;2.92;;;1.75;;
11197;SDS011;5655;48.744;9.162;2023-07-16T14:08:17;2.13;;;1.40;;
11197;SDS011;5655;48.744;9.162;2023-07-16T14:10:42;2.70;;;1.55;;
11197;SDS011;5655;48.744;9.162;2023-07-16T14:13:08;2.40;;;1.30;;
11197;SDS011;5655;48.744;9.162;2023-07-16T14:15:33;4.40;;;1.70;;
11197;SDS011;5655;48.744;9.162;2023-07-16T14:17:59;3.22;;;1.90;;
11197;SDS011;5655;48.744;9.162;2023-07-16T14:20:24;1.88;;;1.67;;
11197;SDS011;5655;48.744;9.162;2023-07-16T14:22:49;3.72;;;1.85;;
11197;SDS011;5655;48.744;9.162;2023-07-16T14:25:15;3.17;;;1.83;;
11197;SDS011;5655;48.744;9.162;2023-07-16T14:27:40;3.97;;;1.52;;
11197;SDS011;5655;48.744;9.162;2023-07-16T14:30:06;2.08;;;1.42;;
11197;SDS011;5655;48.744;9.162;2023-07-16T14:32:33;3.05;;;1.80;;
11197;SDS011;5655;48.744;9.162;2023-07-16T14:34:59;2.60;;;1.58;;
11197;SDS011;5655;48.744;9.162;2023-07-16T14:37:25;2.58;;;1.40;;
11197;SDS011;5655;48.744;9.162;2023-07-16T14:39:51;2.40;;;1.65;;
11197;SDS011;5655;48.744;9.162;2023-07-16T14:42:16;4.22;;;1.85;;
11197;SDS011;5655;48.744;9.162;2023-07-16T14:44:41;2.17;;;1.60;;
11197;SDS011;5655;48.744;9.162;2023-07-16T14:47:06;2.75;;;1.70;;
11197;SDS011;5655;48.744;9.162;2023-07-16T14:49:32;2.63;;;1.63;;
11197;SDS011;5655;48.744;9.162;2023-07-16T14:51:57;2.67;;;1.83;;
11197;SDS011;5655;48.744;9.162;2023-07-16T14:54:22;2.72;;;1.58;;
11197;SDS011;5655;48.744;9.162;2023-07-16T14:56:48;2.85;;;1.73;;
11197;SDS011;5655;48.744;9.162;2023-07-16T14:59:13;2.55;;;1.50;;
11197;SDS011;5655;48.744;9.162;2023-07-16T15:01:38;2.67;;;1.40;;
11197;SDS011;5655;48.744;9.162;2023-07-16T15:04:04;3.13;;;1.63;;
11197;SDS011;5655;48.744;9.162;2023-07-16T15:06:29;2.15;;;1.55;;